createdAt,value
2018-03-11T00:00:08.052Z,93.16
2018-03-11T00:00:48.522Z,93.07
2018-03-11T00:01:28.966Z,93.55
2018-03-11T00:02:09.578Z,93.45
2018-03-11T00:02:50.039Z,93.36
2018-03-11T00:03:30.505Z,93.26
2018-03-11T00:04:11.076Z,93.16
2018-03-11T00:04:51.494Z,93.36
2018-03-11T00:05:32.014Z,92.79
2018-03-11T00:06:12.495Z,92.79
2018-03-11T00:06:52.958Z,92.69
2018-03-11T00:07:33.460Z,92.97
2018-03-11T00:08:13.941Z,92.88
2018-03-11T00:08:54.514Z,93.07
2018-03-11T00:09:35.010Z,92.79
2018-03-11T00:10:15.655Z,92.88
2018-03-11T00:10:56.069Z,92.59
2018-03-11T00:11:36.573Z,92.88
2018-03-11T00:12:17.071Z,93.26
2018-03-11T00:12:57.566Z,92.79
2018-03-11T00:13:38.113Z,92.69
2018-03-11T00:14:18.534Z,93.07
2018-03-11T00:14:59.097Z,92.97
2018-03-11T00:15:39.680Z,92.69
2018-03-11T00:16:20.082Z,92.88
2018-03-11T00:17:00.477Z,92.97
2018-03-11T00:17:41.082Z,92.59
2018-03-11T00:18:21.656Z,92.69
2018-03-11T00:19:02.116Z,93.16
2018-03-11T00:19:42.645Z,93.07
2018-03-11T00:20:23.200Z,93.16
2018-03-11T00:21:03.732Z,92.79
2018-03-11T00:21:44.403Z,92.97
2018-03-11T00:22:24.845Z,92.69
2018-03-11T00:23:05.321Z,92.97
2018-03-11T00:23:45.868Z,92.69
2018-03-11T00:24:26.312Z,92.97
2018-03-11T00:25:06.886Z,92.69
2018-03-11T00:25:47.305Z,92.88
2018-03-11T00:26:27.802Z,92.79
2018-03-11T00:27:08.247Z,92.69
2018-03-11T00:27:48.753Z,92.79
2018-03-11T00:28:29.238Z,92.97
2018-03-11T00:29:09.750Z,92.79
2018-03-11T00:29:50.277Z,92.69
2018-03-11T00:30:30.723Z,92.79
2018-03-11T00:31:11.264Z,92.97
2018-03-11T00:31:51.780Z,92.79
2018-03-11T00:32:32.249Z,93.45
2018-03-11T00:33:12.696Z,93.26
2018-03-11T00:33:53.206Z,93.26
2018-03-11T00:34:33.738Z,93.16
2018-03-11T00:35:14.126Z,92.79
2018-03-11T00:35:54.714Z,92.79
2018-03-11T00:36:35.224Z,93.74
2018-03-11T00:37:15.784Z,93.45
2018-03-11T00:37:56.302Z,93.74
2018-03-11T00:38:36.811Z,93.65
2018-03-11T00:39:17.310Z,92.88
2018-03-11T00:39:57.773Z,93.26
2018-03-11T00:40:38.291Z,93.16
2018-03-11T00:41:18.725Z,93.65
2018-03-11T00:41:59.297Z,93.16
2018-03-11T00:42:39.701Z,92.88
2018-03-11T00:43:20.216Z,92.88
2018-03-11T00:44:00.706Z,93.16
2018-03-11T00:44:41.255Z,92.97
2018-03-11T00:45:21.777Z,92.79
2018-03-11T00:46:02.211Z,92.79
2018-03-11T00:46:42.782Z,92.21
2018-03-11T00:47:23.344Z,92.21
2018-03-11T00:48:03.853Z,92.3
2018-03-11T00:48:44.578Z,92.5
2018-03-11T00:49:25.104Z,92.21
2018-03-11T00:50:05.553Z,93.07
2018-03-11T00:50:46.065Z,92.21
2018-03-11T00:51:26.553Z,92.4
2018-03-11T00:52:07.013Z,92.5
2018-03-11T00:52:47.535Z,92.3
2018-03-11T00:53:28.009Z,92.21
2018-03-11T00:54:08.481Z,93.16
2018-03-11T00:54:49.009Z,93.16
2018-03-11T00:55:29.512Z,92.21
2018-03-11T00:56:10.008Z,92.21
2018-03-11T00:56:50.547Z,92.21
2018-03-11T00:57:31.065Z,92.21
2018-03-11T00:58:11.565Z,92.69
2018-03-11T00:58:51.964Z,93.21
2018-03-11T00:59:32.502Z,93.16
2018-03-11T01:00:13.052Z,92.88
2018-03-11T01:00:53.541Z,92.97
2018-03-11T01:01:33.996Z,92.4
2018-03-11T01:02:14.465Z,92.3
2018-03-11T01:02:54.985Z,92.5
2018-03-11T01:03:35.596Z,92.3
2018-03-11T01:04:16.281Z,92.21
2018-03-11T01:04:56.636Z,93.26
2018-03-11T01:05:37.213Z,92.69
2018-03-11T01:06:17.697Z,92.88
2018-03-11T01:06:58.240Z,92.79
2018-03-11T01:07:38.590Z,92.97
2018-03-11T01:08:19.248Z,92.3
2018-03-11T01:08:59.698Z,92.5
2018-03-11T01:09:40.302Z,92.4
2018-03-11T01:10:20.748Z,92.21
2018-03-11T01:11:01.235Z,92.11
2018-03-11T01:11:41.662Z,91.64
2018-03-11T01:12:22.078Z,91.74
2018-03-11T01:13:02.579Z,92.02
2018-03-11T01:13:43.112Z,92.5
2018-03-11T01:14:23.680Z,92.02
2018-03-11T01:15:04.210Z,91.64
2018-03-11T01:15:44.690Z,91.93
2018-03-11T01:16:25.198Z,91.64
2018-03-11T01:17:06.050Z,91.35
2018-03-11T01:17:46.425Z,91.25
2018-03-11T01:18:26.939Z,90.78
2018-03-11T01:19:07.470Z,90.68
2018-03-11T01:19:47.864Z,90.39
2018-03-11T01:20:28.359Z,90.88
2018-03-11T01:21:08.879Z,90.49
2018-03-11T01:21:49.342Z,90.97
2018-03-11T01:22:29.790Z,90.88
2018-03-11T01:23:10.280Z,90.59
2018-03-11T01:23:50.899Z,90.97
2018-03-11T01:24:31.278Z,90.88
2018-03-11T01:25:11.837Z,90.88
2018-03-11T01:25:52.371Z,91.06
2018-03-11T01:26:32.898Z,90.68
2018-03-11T01:27:13.267Z,90.49
2018-03-11T01:27:53.887Z,90.88
2018-03-11T01:28:34.365Z,90.78
2018-03-11T01:29:14.802Z,90.97
2018-03-11T01:29:55.331Z,90.59
2018-03-11T01:30:35.868Z,90.68
2018-03-11T01:31:16.270Z,90.68
2018-03-11T01:31:56.750Z,90.49
2018-03-11T01:32:37.230Z,90.59
2018-03-11T01:33:17.804Z,90.59
2018-03-11T01:33:58.226Z,90.49
2018-03-11T01:34:38.767Z,90.68
2018-03-11T01:35:19.250Z,90.59
2018-03-11T01:35:59.821Z,90.59
2018-03-11T01:36:40.294Z,90.3
2018-03-11T01:37:20.814Z,90.78
2018-03-11T01:38:01.362Z,90.68
2018-03-11T01:38:41.900Z,90.59
2018-03-11T01:39:22.488Z,90.78
2018-03-11T01:40:02.933Z,90.78
2018-03-11T01:40:43.371Z,90.68
2018-03-11T01:41:23.921Z,89.92
2018-03-11T01:42:04.430Z,90.2
2018-03-11T01:42:44.943Z,90.2
2018-03-11T01:43:25.386Z,90.2
2018-03-11T01:44:05.893Z,90.59
2018-03-11T01:44:46.323Z,89.92
2018-03-11T01:45:26.943Z,90.2
2018-03-11T01:46:07.316Z,90.11
2018-03-11T01:46:47.803Z,90.01
2018-03-11T01:47:28.286Z,90.39
2018-03-11T01:48:08.780Z,90.11
2018-03-11T01:48:49.244Z,90.11
2018-03-11T01:49:29.692Z,90.2
2018-03-11T01:50:10.237Z,90.59
2018-03-11T01:50:50.662Z,90.11
2018-03-11T01:51:31.234Z,90.3
2018-03-11T01:52:11.712Z,90.01
2018-03-11T01:52:52.190Z,89.63
2018-03-11T01:53:32.666Z,89.73
2018-03-11T01:54:13.182Z,89.92
2018-03-11T01:54:53.666Z,89.82
2018-03-11T01:55:34.198Z,89.92
2018-03-11T01:56:14.618Z,89.82
2018-03-11T01:56:55.134Z,90.01
2018-03-11T01:57:35.728Z,90.39
2018-03-11T01:58:16.301Z,90.39
2018-03-11T01:58:57.062Z,89.73
2018-03-11T01:59:37.552Z,89.73
2018-03-11T02:00:18.075Z,89.82
2018-03-11T02:00:58.509Z,90.01
2018-03-11T02:01:38.985Z,89.73
2018-03-11T02:02:19.565Z,90.2
2018-03-11T02:03:00.038Z,89.82
2018-03-11T02:03:40.640Z,90.59
2018-03-11T02:04:21.149Z,90.2
2018-03-11T02:05:01.753Z,90.78
2018-03-11T02:05:42.153Z,90.59
2018-03-11T02:06:22.647Z,90.39
2018-03-11T02:07:03.156Z,89.82
2018-03-11T02:07:43.700Z,89.63
2018-03-11T02:08:24.190Z,89.92
2018-03-11T02:09:04.643Z,89.73
2018-03-11T02:09:45.159Z,89.63
2018-03-11T02:10:25.639Z,89.44
2018-03-11T02:11:06.122Z,89.06
2018-03-11T02:11:46.656Z,89.06
2018-03-11T02:12:27.100Z,89.53
2018-03-11T02:13:07.637Z,89.15
2018-03-11T02:13:48.092Z,89.25
2018-03-11T02:14:28.570Z,89.39
2018-03-11T02:15:09.224Z,89.63
2018-03-11T02:15:49.606Z,89.73
2018-03-11T02:16:30.059Z,89.92
2018-03-11T02:17:10.594Z,89.25
2018-03-11T02:17:51.056Z,89.01
2018-03-11T02:18:31.530Z,89.34
2018-03-11T02:19:12.043Z,88.68
2018-03-11T02:19:52.513Z,88.87
2018-03-11T02:20:33.132Z,88.96
2018-03-11T02:21:13.564Z,89.06
2018-03-11T02:21:54.066Z,89.06
2018-03-11T02:22:34.544Z,89.34
2018-03-11T02:23:15.057Z,89.15
2018-03-11T02:23:55.550Z,89.15
2018-03-11T02:24:36.024Z,89.06
2018-03-11T02:25:16.499Z,88.96
2018-03-11T02:25:57.099Z,89.06
2018-03-11T02:26:37.582Z,89.25
2018-03-11T02:27:18.072Z,89.15
2018-03-11T02:27:58.621Z,89.34
2018-03-11T02:28:39.075Z,89.44
2018-03-11T02:29:19.542Z,89.34
2018-03-11T02:29:59.972Z,88.87
2018-03-11T02:30:40.480Z,89.34
2018-03-11T02:31:20.966Z,88.72
2018-03-11T02:32:01.463Z,89.1
2018-03-11T02:32:41.978Z,89.29
2018-03-11T02:33:22.469Z,89.25
2018-03-11T02:34:02.983Z,89.34
2018-03-11T02:34:43.447Z,89.25
2018-03-11T02:35:23.917Z,89.53
2018-03-11T02:36:04.423Z,89.82
2018-03-11T02:36:44.883Z,89.63
2018-03-11T02:37:25.370Z,89.82
2018-03-11T02:38:05.870Z,89.92
2018-03-11T02:38:46.401Z,89.73
2018-03-11T02:39:26.870Z,89.73
2018-03-11T02:40:07.388Z,89.82
2018-03-11T02:40:47.910Z,89.44
2018-03-11T02:41:28.373Z,89.34
2018-03-11T02:42:08.835Z,89.53
2018-03-11T02:42:49.339Z,89.67
2018-03-11T02:43:29.813Z,89.73
2018-03-11T02:44:10.300Z,89.73
2018-03-11T02:44:50.739Z,89.73
2018-03-11T02:45:31.279Z,89.34
2018-03-11T02:46:11.733Z,89.82
2018-03-11T02:46:52.234Z,89.44
2018-03-11T02:47:32.698Z,89.25
2018-03-11T02:48:13.160Z,89.25
2018-03-11T02:48:53.658Z,89.34
2018-03-11T02:49:34.136Z,89.25
2018-03-11T02:50:14.636Z,89.44
2018-03-11T02:50:55.132Z,89.44
2018-03-11T02:51:35.631Z,89.73
2018-03-11T02:52:16.145Z,89.63
2018-03-11T02:52:56.645Z,88.87
2018-03-11T02:53:37.143Z,88.81
2018-03-11T02:54:17.649Z,89.58
2018-03-11T02:54:58.147Z,89.53
2018-03-11T02:55:38.682Z,89.15
2018-03-11T02:56:19.142Z,89.29
2018-03-11T02:56:59.651Z,89.77
2018-03-11T02:57:40.143Z,89.67
2018-03-11T02:58:20.642Z,89.77
2018-03-11T02:59:01.147Z,89.67
2018-03-11T02:59:41.680Z,90.3
2018-03-11T03:00:22.147Z,90.59
2018-03-11T03:01:02.653Z,90.2
2018-03-11T03:01:43.178Z,90.68
2018-03-11T03:02:23.634Z,90.49
2018-03-11T03:03:04.158Z,90.39
2018-03-11T03:03:44.740Z,90.68
2018-03-11T03:04:25.193Z,90.82
2018-03-11T03:05:05.739Z,90.39
2018-03-11T03:05:46.216Z,90.06
2018-03-11T03:06:26.668Z,90.63
2018-03-11T03:07:07.206Z,90.59
2018-03-11T03:07:47.672Z,90.34
2018-03-11T03:08:28.171Z,90.68
2018-03-11T03:09:08.618Z,90.73
2018-03-11T03:09:49.173Z,90.25
2018-03-11T03:10:29.678Z,90.25
2018-03-11T03:11:10.142Z,90.25
2018-03-11T03:11:50.663Z,90.01
2018-03-11T03:12:31.121Z,90.73
2018-03-11T03:13:11.637Z,90.82
2018-03-11T03:13:52.140Z,90.73
2018-03-11T03:14:32.635Z,90.82
2018-03-11T03:15:13.158Z,90.59
2018-03-11T03:15:53.685Z,90.53
2018-03-11T03:16:34.162Z,90.68
2018-03-11T03:17:14.639Z,90.63
2018-03-11T03:17:55.149Z,90.82
2018-03-11T03:18:35.647Z,90.25
2018-03-11T03:19:16.209Z,90.68
2018-03-11T03:19:56.664Z,90.49
2018-03-11T03:20:37.170Z,90.78
2018-03-11T03:21:17.681Z,91.06
2018-03-11T03:21:58.175Z,90.88
2018-03-11T03:22:38.657Z,90.78
2018-03-11T03:23:19.151Z,90.97
2018-03-11T03:23:59.651Z,90.97
2018-03-11T03:24:40.125Z,91.06
2018-03-11T03:25:20.623Z,91.06
2018-03-11T03:26:01.112Z,90.88
2018-03-11T03:26:41.614Z,91.25
2018-03-11T03:27:22.165Z,91.06
2018-03-11T03:28:02.666Z,90.88
2018-03-11T03:28:43.139Z,90.88
2018-03-11T03:29:23.675Z,91.06
2018-03-11T03:30:04.146Z,90.88
2018-03-11T03:30:44.622Z,90.59
2018-03-11T03:31:25.097Z,90.59
2018-03-11T03:32:05.599Z,90.68
2018-03-11T03:32:46.055Z,90.68
2018-03-11T03:33:26.511Z,90.78
2018-03-11T03:34:06.978Z,90.68
2018-03-11T03:34:47.475Z,90.97
2018-03-11T03:35:27.974Z,90.68
2018-03-11T03:36:08.468Z,91.45
2018-03-11T03:36:48.949Z,91.54
2018-03-11T03:37:29.463Z,91.16
2018-03-11T03:38:09.944Z,91.16
2018-03-11T03:38:50.473Z,91.25
2018-03-11T03:39:30.947Z,91.93
2018-03-11T03:40:11.429Z,91.74
2018-03-11T03:40:51.927Z,91.4
2018-03-11T03:41:32.425Z,92.02
2018-03-11T03:42:12.934Z,91.45
2018-03-11T03:42:53.423Z,91.83
2018-03-11T03:43:33.927Z,91.06
2018-03-11T03:44:14.411Z,91.45
2018-03-11T03:44:54.932Z,92.02
2018-03-11T03:45:35.433Z,91.59
2018-03-11T03:46:15.941Z,91.83
2018-03-11T03:46:56.410Z,92.02
2018-03-11T03:47:36.921Z,91.88
2018-03-11T03:48:17.445Z,91.59
2018-03-11T03:48:57.923Z,91.64
2018-03-11T03:49:38.398Z,91.97
2018-03-11T03:50:18.908Z,91.88
2018-03-11T03:50:59.419Z,91.88
2018-03-11T03:51:39.872Z,91.78
2018-03-11T03:52:20.373Z,92.55
2018-03-11T03:53:00.858Z,92.45
2018-03-11T03:53:41.354Z,92.45
2018-03-11T03:54:21.868Z,92.36
2018-03-11T03:55:02.393Z,92.55
2018-03-11T03:55:42.868Z,92.55
2018-03-11T03:56:23.371Z,92.36
2018-03-11T03:57:03.875Z,92.55
2018-03-11T03:57:44.399Z,92.36
2018-03-11T03:58:24.881Z,92.26
2018-03-11T03:59:05.390Z,92.74
2018-03-11T03:59:45.873Z,93.7
2018-03-11T04:00:26.375Z,93.12
2018-03-11T04:01:06.876Z,93.41
2018-03-11T04:01:47.378Z,93.41
2018-03-11T04:02:27.832Z,93.12
2018-03-11T04:03:08.314Z,93.07
2018-03-11T04:03:48.886Z,93.5
2018-03-11T04:04:29.372Z,93.21
2018-03-11T04:05:09.861Z,93.31
2018-03-11T04:05:50.342Z,93.6
2018-03-11T04:06:30.840Z,92.83
2018-03-11T04:07:11.331Z,93.41
2018-03-11T04:07:51.848Z,93.6
2018-03-11T04:08:32.332Z,93.31
2018-03-11T04:09:12.822Z,92.64
2018-03-11T04:09:53.317Z,92.93
2018-03-11T04:10:33.835Z,92.83
2018-03-11T04:11:14.308Z,92.74
2018-03-11T04:11:54.851Z,92.93
2018-03-11T04:12:35.317Z,93.02
2018-03-11T04:13:15.811Z,93.12
2018-03-11T04:13:56.309Z,92.16
2018-03-11T04:14:36.846Z,92.55
2018-03-11T04:15:17.327Z,92.64
2018-03-11T04:15:57.797Z,92.55
2018-03-11T04:16:38.286Z,92.45
2018-03-11T04:17:18.809Z,92.55
2018-03-11T04:17:59.274Z,92.64
2018-03-11T04:18:39.803Z,92.16
2018-03-11T04:19:20.316Z,92.31
2018-03-11T04:20:00.784Z,93.17
2018-03-11T04:20:41.251Z,93.26
2018-03-11T04:21:21.762Z,93.07
2018-03-11T04:22:02.258Z,93.46
2018-03-11T04:22:42.742Z,93.74
2018-03-11T04:23:23.264Z,93.17
2018-03-11T04:24:03.784Z,93.07
2018-03-11T04:24:44.243Z,92.88
2018-03-11T04:25:24.732Z,92.64
2018-03-11T04:26:05.302Z,92.83
2018-03-11T04:26:45.777Z,92.45
2018-03-11T04:27:26.273Z,92.97
2018-03-11T04:28:06.769Z,92.88
2018-03-11T04:28:47.287Z,92.69
2018-03-11T04:29:27.768Z,92.69
2018-03-11T04:30:08.265Z,92.88
2018-03-11T04:30:48.754Z,92.5
2018-03-11T04:31:29.316Z,92.97
2018-03-11T04:32:09.764Z,92.69
2018-03-11T04:32:50.275Z,92.88
2018-03-11T04:33:30.743Z,92.88
2018-03-11T04:34:11.237Z,92.69
2018-03-11T04:34:51.756Z,92.79
2018-03-11T04:35:32.238Z,92.31
2018-03-11T04:36:12.772Z,92.6
2018-03-11T04:36:53.240Z,92.5
2018-03-11T04:37:33.735Z,92.5
2018-03-11T04:38:14.188Z,92.21
2018-03-11T04:38:54.707Z,92.31
2018-03-11T04:39:35.243Z,91.64
2018-03-11T04:40:15.721Z,91.97
2018-03-11T04:40:56.238Z,91.36
2018-03-11T04:41:36.713Z,91.74
2018-03-11T04:42:17.231Z,92.02
2018-03-11T04:42:57.745Z,91.93
2018-03-11T04:43:38.271Z,91.74
2018-03-11T04:44:18.745Z,91.74
2018-03-11T04:44:59.252Z,92.02
2018-03-11T04:45:39.737Z,91.83
2018-03-11T04:46:20.258Z,91.55
2018-03-11T04:47:00.726Z,91.74
2018-03-11T04:47:41.213Z,91.74
2018-03-11T04:48:21.722Z,92.02
2018-03-11T04:49:02.214Z,91.74
2018-03-11T04:49:42.700Z,91.83
2018-03-11T04:50:23.207Z,92.31
2018-03-11T04:51:03.695Z,92.12
2018-03-11T04:51:44.176Z,92.12
2018-03-11T04:52:24.685Z,92.12
2018-03-11T04:53:05.173Z,92.21
2018-03-11T04:53:45.672Z,92.31
2018-03-11T04:54:26.202Z,92.02
2018-03-11T04:55:06.683Z,92.41
2018-03-11T04:55:47.163Z,92.41
2018-03-11T04:56:27.658Z,92.12
2018-03-11T04:57:08.166Z,92.6
2018-03-11T04:57:48.683Z,91.93
2018-03-11T04:58:29.177Z,91.74
2018-03-11T04:59:09.689Z,91.83
2018-03-11T04:59:50.188Z,91.64
2018-03-11T05:00:30.684Z,91.83
2018-03-11T05:01:11.167Z,91.74
2018-03-11T05:01:51.666Z,92.02
2018-03-11T05:02:32.168Z,91.74
2018-03-11T05:03:12.684Z,92.02
2018-03-11T05:03:53.184Z,91.74
2018-03-11T05:04:33.694Z,91.83
2018-03-11T05:05:14.217Z,91.83
2018-03-11T05:05:54.731Z,91.74
2018-03-11T05:06:35.177Z,91.74
2018-03-11T05:07:15.747Z,91.93
2018-03-11T05:07:56.207Z,91.45
2018-03-11T05:08:36.707Z,91.64
2018-03-11T05:09:17.234Z,91.83
2018-03-11T05:09:57.784Z,91.64
2018-03-11T05:10:38.215Z,91.45
2018-03-11T05:11:18.736Z,91.45
2018-03-11T05:11:59.219Z,91.55
2018-03-11T05:12:39.691Z,91.64
2018-03-11T05:13:20.206Z,91.36
2018-03-11T05:14:00.691Z,91.64
2018-03-11T05:14:41.203Z,91.74
2018-03-11T05:15:21.716Z,91.83
2018-03-11T05:16:02.210Z,91.64
2018-03-11T05:16:42.715Z,91.74
2018-03-11T05:17:23.194Z,91.83
2018-03-11T05:18:03.700Z,91.93
2018-03-11T05:18:44.195Z,91.83
2018-03-11T05:19:24.724Z,92.21
2018-03-11T05:20:05.212Z,91.93
2018-03-11T05:20:45.741Z,92.79
2018-03-11T05:21:26.242Z,92.12
2018-03-11T05:22:06.726Z,92.02
2018-03-11T05:22:47.245Z,92.02
2018-03-11T05:23:27.788Z,92.41
2018-03-11T05:24:08.365Z,92.6
2018-03-11T05:24:48.857Z,92.31
2018-03-11T05:25:29.379Z,92.02
2018-03-11T05:26:09.859Z,91.93
2018-03-11T05:26:50.372Z,92.02
2018-03-11T05:27:30.895Z,91.93
2018-03-11T05:28:11.391Z,92.31
2018-03-11T05:28:51.888Z,92.02
2018-03-11T05:29:32.403Z,92.88
2018-03-11T05:30:12.874Z,92.02
2018-03-11T05:30:53.412Z,92.31
2018-03-11T05:31:33.898Z,92.5
2018-03-11T05:32:14.402Z,92.31
2018-03-11T05:32:54.889Z,92.31
2018-03-11T05:33:35.386Z,91.93
2018-03-11T05:34:15.901Z,92.02
2018-03-11T05:34:56.397Z,92.31
2018-03-11T05:35:36.861Z,92.31
2018-03-11T05:36:17.373Z,92.31
2018-03-11T05:36:57.846Z,92.79
2018-03-11T05:37:38.392Z,93.07
2018-03-11T05:38:18.894Z,92.79
2018-03-11T05:38:59.427Z,91.93
2018-03-11T05:39:39.922Z,92.31
2018-03-11T05:40:20.413Z,92.41
2018-03-11T05:41:00.907Z,92.41
2018-03-11T05:41:41.426Z,92.5
2018-03-11T05:42:21.935Z,92.31
2018-03-11T05:43:02.436Z,92.83
2018-03-11T05:43:42.937Z,93.22
2018-03-11T05:44:23.476Z,93.02
2018-03-11T05:45:03.960Z,94.07
2018-03-11T05:45:44.433Z,93.7
2018-03-11T05:46:24.942Z,93.84
2018-03-11T05:47:05.444Z,93.36
2018-03-11T05:47:46.011Z,93.41
2018-03-11T05:48:26.529Z,93.41
2018-03-11T05:49:07.068Z,93.31
2018-03-11T05:49:47.537Z,93.51
2018-03-11T05:50:28.059Z,93.6
2018-03-11T05:51:08.573Z,93.98
2018-03-11T05:51:49.096Z,94.27
2018-03-11T05:52:29.583Z,94.17
2018-03-11T05:53:10.101Z,93.98
2018-03-11T05:53:50.573Z,93.98
2018-03-11T05:54:31.081Z,94.17
2018-03-11T05:55:11.634Z,94.17
2018-03-11T05:55:52.069Z,94.07
2018-03-11T05:56:32.583Z,93.6
2018-03-11T05:57:13.038Z,93.98
2018-03-11T05:57:53.556Z,93.46
2018-03-11T05:58:34.048Z,93.65
2018-03-11T05:59:14.575Z,94.03
2018-03-11T05:59:55.099Z,94.03
2018-03-11T06:00:35.554Z,93.74
2018-03-11T06:01:16.065Z,93.26
2018-03-11T06:03:09.120Z,93.17
2018-03-11T06:03:49.619Z,93.07
2018-03-11T06:04:30.128Z,93.26
2018-03-11T06:05:10.649Z,93.17
2018-03-11T06:05:51.123Z,93.36
2018-03-11T06:06:31.624Z,93.46
2018-03-11T06:07:12.122Z,93.55
2018-03-11T06:07:52.642Z,93.17
2018-03-11T06:08:33.112Z,93.17
2018-03-11T06:09:13.609Z,92.79
2018-03-11T06:11:33.780Z,92.88
2018-03-11T06:12:14.276Z,93.36
2018-03-11T06:12:54.803Z,92.79
2018-03-11T06:13:35.320Z,93.17
2018-03-11T06:14:15.784Z,93.17
2018-03-11T06:14:56.390Z,92.88
2018-03-11T06:15:36.780Z,92.69
2018-03-11T06:16:17.275Z,93.36
2018-03-11T06:16:57.795Z,93.07
2018-03-11T06:17:38.244Z,93.17
2018-03-11T06:18:18.704Z,92.69
2018-03-11T06:18:59.251Z,92.69
2018-03-11T06:19:39.757Z,92.21
2018-03-11T06:20:20.237Z,92.41
2018-03-11T06:21:00.742Z,92.31
2018-03-11T06:21:41.219Z,91.83
2018-03-11T06:22:21.750Z,91.74
2018-03-11T06:23:02.217Z,91.16
2018-03-11T06:23:42.699Z,90.78
2018-03-11T06:24:23.221Z,90.78
2018-03-11T06:25:03.727Z,90.4
2018-03-11T06:25:44.210Z,90.5
2018-03-11T06:26:24.779Z,90.5
2018-03-11T06:27:05.232Z,90.02
2018-03-11T06:27:45.731Z,89.54
2018-03-11T06:28:26.585Z,89.45
2018-03-11T06:29:07.074Z,89.16
2018-03-11T06:29:48.273Z,89.16
2018-03-11T06:30:30.096Z,88.59
2018-03-11T06:31:11.341Z,88.59
2018-03-11T06:31:55.732Z,88.4
2018-03-11T06:32:36.471Z,88.4
2018-03-11T06:33:17.032Z,88.2
2018-03-11T06:33:57.506Z,88.3
2018-03-11T06:34:38.778Z,87.92
2018-03-11T06:35:19.664Z,87.25
2018-03-11T06:36:00.222Z,87.44
2018-03-11T06:36:40.718Z,87.44
2018-03-11T06:37:21.230Z,87.44
2018-03-11T06:38:01.733Z,87.39
2018-03-11T06:38:42.230Z,87.68
2018-03-11T06:39:22.742Z,87.39
2018-03-11T06:40:03.238Z,87.1
2018-03-11T06:40:43.756Z,87.1
2018-03-11T06:41:24.245Z,87.29
2018-03-11T06:42:04.729Z,87.01
2018-03-11T06:42:45.242Z,86.72
2018-03-11T06:43:25.745Z,86.72
2018-03-11T06:44:06.254Z,86.53
2018-03-11T06:44:46.766Z,86.82
2018-03-11T06:45:27.276Z,86.53
2018-03-11T06:46:07.783Z,86.63
2018-03-11T06:46:48.284Z,86.72
2018-03-11T06:47:28.773Z,86.91
2018-03-11T06:48:09.259Z,86.53
2018-03-11T06:48:49.816Z,86.15
2018-03-11T06:49:30.279Z,85.38
2018-03-11T06:50:10.787Z,85.58
2018-03-11T06:50:51.336Z,85.38
2018-03-11T06:51:31.855Z,86.43
2018-03-11T06:52:12.425Z,85.48
2018-03-11T06:52:52.870Z,85.77
2018-03-11T06:53:33.384Z,85.48
2018-03-11T06:54:13.860Z,85.29
2018-03-11T06:54:55.946Z,85.67
2018-03-11T06:55:36.455Z,85.38
2018-03-11T06:56:16.955Z,85.52
2018-03-11T06:56:57.426Z,84.95
2018-03-11T06:57:37.933Z,85.05
2018-03-11T06:58:18.412Z,85.14
2018-03-11T06:58:58.954Z,85.29
2018-03-11T06:59:39.442Z,85.67
2018-03-11T07:00:19.962Z,85.71
2018-03-11T07:01:00.462Z,85.96
2018-03-11T07:01:40.945Z,85.42
2018-03-11T07:02:21.459Z,85.14
2018-03-11T07:03:01.946Z,85.24
2018-03-11T07:03:42.507Z,85.33
2018-03-11T07:04:23.010Z,85.33
2018-03-11T07:05:03.572Z,85.52
2018-03-11T07:05:44.024Z,85.71
2018-03-11T07:06:24.472Z,84.85
2018-03-11T07:07:04.954Z,85.14
2018-03-11T07:07:45.434Z,85.62
2018-03-11T07:08:25.972Z,86
2018-03-11T07:09:06.374Z,85.52
2018-03-11T07:09:46.876Z,85.24
2018-03-11T07:10:27.384Z,84.95
2018-03-11T07:11:07.903Z,85.42
2018-03-11T07:11:48.389Z,84.85
2018-03-11T07:12:28.923Z,85.52
2018-03-11T07:13:09.443Z,85.52
2018-03-11T07:13:49.921Z,84.85
2018-03-11T07:14:30.421Z,85.71
2018-03-11T07:15:10.924Z,85.81
2018-03-11T07:15:51.432Z,85.42
2018-03-11T07:16:31.954Z,85.9
2018-03-11T07:17:12.482Z,85.81
2018-03-11T07:17:52.959Z,85.62
2018-03-11T07:18:33.448Z,85.52
2018-03-11T07:19:13.920Z,85.05
2018-03-11T07:19:54.434Z,85.42
2018-03-11T07:20:34.924Z,85.24
2018-03-11T07:21:15.436Z,85.14
2018-03-11T07:21:55.962Z,85.18
2018-03-11T07:22:36.489Z,85.42
2018-03-11T07:23:17.001Z,85.42
2018-03-11T07:23:57.544Z,85.81
2018-03-11T07:24:38.128Z,86.29
2018-03-11T07:25:18.933Z,86.19
2018-03-11T07:25:59.355Z,86.1
2018-03-11T07:26:39.840Z,86
2018-03-11T07:27:20.646Z,86.57
2018-03-11T07:28:01.151Z,86.96
2018-03-11T07:28:41.675Z,86.72
2018-03-11T07:29:22.581Z,86.86
2018-03-11T07:30:03.115Z,87.34
2018-03-11T07:30:43.595Z,87.53
2018-03-11T07:31:24.638Z,87.29
2018-03-11T07:32:05.153Z,87.34
2018-03-11T07:32:45.687Z,87.24
2018-03-11T07:33:26.189Z,87.43
2018-03-11T07:34:06.674Z,87.53
2018-03-11T07:34:47.374Z,88.29
2018-03-11T07:35:27.885Z,87.96
2018-03-11T07:36:08.466Z,88.34
2018-03-11T07:36:48.831Z,89.11
2018-03-11T07:37:29.612Z,88.92
2018-03-11T07:39:18.932Z,90.78
2018-03-11T07:39:59.431Z,91.36
2018-03-11T07:40:40.030Z,92.02
2018-03-11T07:41:20.518Z,92.6
2018-03-11T07:42:02.233Z,92.6
2018-03-11T07:42:43.017Z,92.41
2018-03-11T07:43:23.547Z,92.88
2018-03-11T07:44:04.139Z,92.5
2018-03-11T07:44:44.644Z,92.97
2018-03-11T07:45:25.060Z,93.12
2018-03-11T07:46:05.628Z,93.46
2018-03-11T07:46:46.202Z,93.46
2018-03-11T07:47:26.647Z,93.36
2018-03-11T07:48:07.309Z,93.55
2018-03-11T07:48:47.721Z,93.36
2018-03-11T07:49:28.386Z,93.36
2018-03-11T07:50:08.849Z,93.07
2018-03-11T07:50:49.336Z,93.26
2018-03-11T07:51:30.269Z,93.98
2018-03-11T07:52:11.102Z,94.17
2018-03-11T07:52:51.671Z,95.41
2018-03-11T07:53:32.194Z,94.74
2018-03-11T07:54:12.751Z,95.51
2018-03-11T07:54:53.250Z,95.41
2018-03-11T07:55:34.059Z,94.27
2018-03-11T07:56:14.540Z,94.56
2018-03-11T07:56:54.995Z,94.84
2018-03-11T07:57:35.498Z,94.56
2018-03-11T07:58:15.970Z,94.74
2018-03-11T07:58:56.579Z,94.27
2018-03-11T07:59:37.126Z,94.12
2018-03-11T08:00:17.619Z,94.07
2018-03-11T08:00:58.103Z,94.07
2018-03-11T08:01:41.292Z,94.46
2018-03-11T08:02:21.726Z,95.51
2018-03-11T08:03:02.156Z,94.74
2018-03-11T08:03:42.739Z,94.56
2018-03-11T08:04:23.159Z,94.93
2018-03-11T08:05:03.813Z,94.74
2018-03-11T08:05:44.231Z,94.74
2018-03-11T08:06:24.795Z,95.12
2018-03-11T08:07:05.348Z,95.12
2018-03-11T08:07:45.914Z,94.46
2018-03-11T08:08:26.745Z,94.74
2018-03-11T08:09:07.242Z,94.27
2018-03-11T08:09:47.784Z,94.74
2018-03-11T08:10:28.410Z,95.32
2018-03-11T08:11:09.352Z,95.32
2018-03-11T08:11:49.801Z,95.12
2018-03-11T08:12:30.256Z,96.17
2018-03-11T08:13:10.770Z,96.17
2018-03-11T08:13:51.597Z,95.98
2018-03-11T08:14:32.059Z,95.98
2018-03-11T08:15:12.528Z,95.41
2018-03-11T08:15:52.999Z,95.22
2018-03-11T08:16:33.507Z,95.32
2018-03-11T08:17:14.029Z,94.89
2018-03-11T08:17:54.618Z,94.46
2018-03-11T08:18:35.221Z,94.7
2018-03-11T08:19:15.747Z,94.74
2018-03-11T08:19:56.312Z,94.74
2018-03-11T08:20:36.762Z,94.74
2018-03-11T08:21:17.258Z,94.46
2018-03-11T08:21:57.740Z,94.79
2018-03-11T08:22:38.239Z,94.7
2018-03-11T08:23:18.680Z,94.79
2018-03-11T08:23:59.226Z,94.41
2018-03-11T08:24:39.729Z,94.89
2018-03-11T08:25:20.192Z,94.65
2018-03-11T08:26:00.699Z,94.36
2018-03-11T08:26:41.164Z,95.03
2018-03-11T08:27:21.934Z,95.32
2018-03-11T08:28:02.415Z,94.6
2018-03-11T08:28:42.849Z,94.51
2018-03-11T08:29:23.342Z,94.7
2018-03-11T08:30:03.862Z,94.22
2018-03-11T08:30:44.630Z,94.12
2018-03-11T08:31:25.068Z,94.12
2018-03-11T08:32:05.647Z,94.79
2018-03-11T08:32:46.137Z,94.89
2018-03-11T08:33:26.705Z,94.79
2018-03-11T08:34:07.249Z,94.46
2018-03-11T08:34:47.679Z,94.46
2018-03-11T08:35:28.237Z,94.41
2018-03-11T08:36:08.717Z,94.41
2018-03-11T08:36:49.158Z,94.51
2018-03-11T08:37:29.645Z,94.51
2018-03-11T08:38:10.173Z,94.51
2018-03-11T08:38:50.621Z,94.79
2018-03-11T08:39:31.176Z,94.7
2018-03-11T08:40:11.604Z,94.79
2018-03-11T08:40:52.129Z,94.51
2018-03-11T08:41:32.586Z,94.51
2018-03-11T08:42:13.096Z,95.08
2018-03-11T08:42:53.522Z,95.46
2018-03-11T08:43:34.027Z,94.89
2018-03-11T08:44:14.501Z,95.27
2018-03-11T08:44:54.998Z,94.41
2018-03-11T08:45:35.512Z,94.6
2018-03-11T08:46:16.012Z,94.12
2018-03-11T08:46:56.522Z,94.12